createdAt,value
2018-02-21T00:02:11.921Z,-1.07
2018-02-21T00:04:40.373Z,-1.07
2018-02-21T00:07:08.717Z,-0.93
2018-02-21T00:09:37.065Z,-1.11
2018-02-21T00:12:05.394Z,-1.15
2018-02-21T00:14:33.764Z,-0.99
2018-02-21T00:17:02.112Z,-0.88
2018-02-21T00:19:30.573Z,-0.97
2018-02-21T00:21:58.919Z,-1.01
2018-02-21T00:24:27.205Z,-1.02
2018-02-21T00:26:55.547Z,-1.03
2018-02-21T00:29:23.878Z,-1.03
2018-02-21T00:31:52.248Z,-1.04
2018-02-21T00:34:20.632Z,-1.00
2018-02-21T00:36:48.999Z,-1.15
2018-02-21T00:39:17.286Z,-1.15
2018-02-21T00:41:45.610Z,-1.04
2018-02-21T00:44:13.901Z,-1.00
2018-02-21T00:46:42.226Z,-1.15
2018-02-21T00:49:10.591Z,-1.17
2018-02-21T00:51:39.089Z,-1.14
2018-02-21T00:54:07.500Z,-1.26
2018-02-21T00:56:35.844Z,-1.28
2018-02-21T00:59:04.411Z,-1.33
2018-02-21T01:01:32.779Z,-1.35
2018-02-21T01:04:01.114Z,-1.49
2018-02-21T01:06:29.528Z,-1.44
2018-02-21T01:08:57.834Z,-1.48
2018-02-21T01:11:26.148Z,-1.55
2018-02-21T01:13:54.513Z,-1.49
2018-02-21T01:16:22.843Z,-1.44
2018-02-21T01:18:51.243Z,-1.60
2018-02-21T01:21:19.601Z,-1.67
2018-02-21T01:23:48.466Z,-1.75
2018-02-21T01:26:16.969Z,-1.80
2018-02-21T01:28:45.441Z,-1.66
2018-02-21T01:31:13.830Z,-1.60
2018-02-21T01:33:42.165Z,-1.55
2018-02-21T01:36:10.694Z,-1.59
2018-02-21T01:38:39.144Z,-1.75
2018-02-21T01:41:07.484Z,-1.74
2018-02-21T01:43:35.789Z,-1.62
2018-02-21T01:46:04.102Z,-1.78
2018-02-21T01:48:32.444Z,-1.69
2018-02-21T01:51:00.788Z,-1.59
2018-02-21T01:53:29.102Z,-1.81
2018-02-21T01:55:57.441Z,-1.78
2018-02-21T01:58:25.833Z,-1.81
2018-02-21T02:01:00.983Z,-1.73
2018-02-21T02:03:29.285Z,-1.83
2018-02-21T02:05:57.793Z,-1.79
2018-02-21T02:08:26.139Z,-1.92
2018-02-21T02:10:54.478Z,-1.88
2018-02-21T02:13:22.817Z,-2.05
2018-02-21T02:15:51.174Z,-2.03
2018-02-21T02:18:20.376Z,-1.96
2018-02-21T02:20:48.873Z,-1.95
2018-02-21T02:23:17.341Z,-1.89
2018-02-21T02:25:45.838Z,-1.97
2018-02-21T02:28:14.226Z,-1.95
2018-02-21T02:30:42.595Z,-1.88
2018-02-21T02:33:11.233Z,-1.99
2018-02-21T02:35:39.761Z,-1.92
2018-02-21T02:38:08.281Z,-1.96
2018-02-21T02:40:36.645Z,-2.14
2018-02-21T02:43:04.938Z,-2.24
2018-02-21T02:45:33.433Z,-1.97
2018-02-21T02:48:01.742Z,-2.17
2018-02-21T02:50:30.092Z,-2.05
2018-02-21T02:52:58.434Z,-2.13
2018-02-21T02:55:26.794Z,-2.05
2018-02-21T02:57:55.095Z,-2.18
2018-02-21T03:00:23.450Z,-2.25
2018-02-21T03:02:51.789Z,-2.25
2018-02-21T03:05:23.522Z,-2.33
2018-02-21T03:07:52.929Z,-2.22
2018-02-21T03:10:21.274Z,-2.13
2018-02-21T03:12:49.751Z,-2.01
2018-02-21T03:15:18.247Z,-1.94
2018-02-21T03:17:46.569Z,-1.92
2018-02-21T03:20:15.069Z,-2.32
2018-02-21T03:22:47.427Z,-2.46
2018-02-21T03:25:15.751Z,-2.42
2018-02-21T03:27:44.112Z,-2.45
2018-02-21T03:30:12.482Z,-2.56
2018-02-21T03:32:40.845Z,-2.49
2018-02-21T03:35:12.249Z,-2.78
2018-02-21T03:37:40.615Z,-2.58
2018-02-21T03:40:09.083Z,-2.57
2018-02-21T03:42:37.385Z,-2.89
2018-02-21T03:45:05.751Z,-2.81
2018-02-21T03:47:34.054Z,-2.82
2018-02-21T03:50:02.333Z,-2.95
2018-02-21T03:52:30.716Z,-2.79
2018-02-21T03:54:59.030Z,-2.69
2018-02-21T03:57:27.388Z,-2.71
2018-02-21T03:59:55.864Z,-2.70
2018-02-21T04:02:24.193Z,-2.94
2018-02-21T04:04:52.556Z,-2.99
2018-02-21T04:07:20.933Z,-3.12
2018-02-21T04:09:49.228Z,-3.20
2018-02-21T04:12:17.571Z,-3.06
2018-02-21T04:14:45.877Z,-3.06
2018-02-21T04:17:14.204Z,-3.06
2018-02-21T04:19:43.565Z,-3.24
2018-02-21T04:22:18.301Z,-3.15
2018-02-21T04:24:46.626Z,-3.40
2018-02-21T04:27:14.984Z,-3.10
2018-02-21T04:29:43.319Z,-2.99
2018-02-21T04:32:11.664Z,-3.08
2018-02-21T04:34:40.130Z,-3.06
2018-02-21T04:37:08.448Z,-3.25
2018-02-21T04:39:36.799Z,-3.19
2018-02-21T04:42:05.218Z,-3.27
2018-02-21T04:44:34.068Z,-3.22
2018-02-21T04:47:02.406Z,-2.99
2018-02-21T04:49:30.990Z,-2.97
2018-02-21T04:51:59.329Z,-3.29
2018-02-21T04:54:27.798Z,-3.43
2018-02-21T04:56:56.629Z,-3.47
2018-02-21T04:59:25.205Z,-3.50
2018-02-21T05:04:49.197Z,-3.50
2018-02-21T05:07:17.776Z,-3.63
2018-02-21T05:09:47.168Z,-3.54
2018-02-21T05:12:17.955Z,-3.45
2018-02-21T05:14:47.493Z,-3.07
2018-02-21T05:17:16.186Z,-3.48
2018-02-21T05:19:46.101Z,-3.58
2018-02-21T05:22:14.701Z,-3.65
2018-02-21T05:24:43.853Z,-3.61
2018-02-21T05:27:12.551Z,-3.56
2018-02-21T05:29:41.274Z,-3.67
2018-02-21T05:32:09.984Z,-3.62
2018-02-21T05:34:39.106Z,-3.52
2018-02-21T05:37:07.731Z,-3.49
2018-02-21T05:39:36.741Z,-3.40
2018-02-21T05:42:06.064Z,-3.12
2018-02-21T05:44:34.764Z,-3.40
2018-02-21T05:47:03.918Z,-3.24
2018-02-21T05:49:32.631Z,-3.18
2018-02-21T05:52:02.274Z,-3.09
2018-02-21T05:54:31.526Z,-3.27
2018-02-21T05:57:00.569Z,-3.07
2018-02-21T05:59:29.124Z,-2.94
2018-02-21T06:01:57.918Z,-2.85
2018-02-21T06:04:26.703Z,-2.83
2018-02-21T06:06:55.287Z,-2.93
2018-02-21T06:09:23.814Z,-2.98
2018-02-21T06:11:52.572Z,-2.84
2018-02-21T06:14:21.083Z,-2.93
2018-02-21T06:16:49.751Z,-2.97
2018-02-21T06:19:18.466Z,-2.84
2018-02-21T06:21:47.158Z,-2.83
2018-02-21T06:24:15.726Z,-2.74
2018-02-21T06:26:44.693Z,-2.80
2018-02-21T06:29:14.102Z,-2.93
2018-02-21T06:31:42.689Z,-2.94
2018-02-21T06:34:11.775Z,-2.85
2018-02-21T06:36:41.084Z,-2.74
2018-02-21T06:39:11.334Z,-2.83
2018-02-21T06:41:43.357Z,-3.07
2018-02-21T06:44:12.268Z,-2.82
2018-02-21T06:46:41.096Z,-2.80
2018-02-21T06:49:09.850Z,-2.97
2018-02-21T06:51:39.861Z,-2.95
2018-02-21T06:54:08.812Z,-2.85
2018-02-21T06:56:37.696Z,-2.60
2018-02-21T06:59:06.813Z,-2.77
2018-02-21T07:01:35.730Z,-2.66
2018-02-21T07:04:04.534Z,-2.58
2018-02-21T07:06:34.127Z,-2.19
2018-02-21T07:09:03.553Z,-2.28
2018-02-21T07:11:32.426Z,-2.03
2018-02-21T07:14:00.979Z,-2.14
2018-02-21T07:16:29.786Z,-1.82
2018-02-21T07:18:58.771Z,-1.62
2018-02-21T07:21:27.461Z,-1.69
2018-02-21T07:23:55.972Z,-1.64
2018-02-21T07:26:24.539Z,-1.41
2018-02-21T07:28:53.272Z,-1.46
2018-02-21T07:31:21.848Z,-1.19
2018-02-21T07:33:50.814Z,-1.14
2018-02-21T07:36:19.697Z,-1.14
2018-02-21T07:38:48.438Z,-0.95
2018-02-21T07:41:17.564Z,-0.75
2018-02-21T07:43:47.215Z,-0.65
2018-02-21T07:46:16.034Z,-0.56
2018-02-21T07:48:46.286Z,-0.49
2018-02-21T07:51:16.772Z,-0.37
2018-02-21T07:53:45.428Z,-0.19
2018-02-21T07:56:14.284Z,-0.25
2018-02-21T07:58:42.885Z,-0.17
2018-02-21T08:01:12.561Z,0.09
2018-02-21T08:03:42.268Z,0.18
2018-02-21T08:06:11.168Z,-0.01
2018-02-21T08:08:39.940Z,0.30
2018-02-21T08:11:08.664Z,0.29
2018-02-21T08:13:37.466Z,0.48
2018-02-21T08:16:06.279Z,0.34
2018-02-21T08:18:36.085Z,0.37
2018-02-21T08:21:05.025Z,0.58
2018-02-21T08:23:33.527Z,0.57
2018-02-21T08:26:02.699Z,0.59
2018-02-21T08:28:31.732Z,0.87
2018-02-21T08:31:00.602Z,0.94
2018-02-21T08:33:29.181Z,0.91
2018-02-21T08:35:58.054Z,1.17
2018-02-21T08:38:26.667Z,1.36
2018-02-21T08:40:55.613Z,1.29
2018-02-21T08:43:24.672Z,1.13
2018-02-21T08:45:53.476Z,1.15
2018-02-21T08:48:22.105Z,1.16
2018-02-21T08:50:51.152Z,1.37
2018-02-21T08:53:19.809Z,1.67
2018-02-21T08:55:48.579Z,1.55
2018-02-21T08:58:17.128Z,1.64
2018-02-21T09:00:46.913Z,1.25
2018-02-21T09:03:19.540Z,1.65
2018-02-21T09:05:48.627Z,2.21
2018-02-21T09:08:17.690Z,1.98
2018-02-21T09:10:46.805Z,2.23
2018-02-21T09:13:15.714Z,2.41
2018-02-21T09:15:44.768Z,2.14
2018-02-21T09:18:13.705Z,2.72
2018-02-21T09:20:42.293Z,2.43
2018-02-21T09:23:12.100Z,2.64
2018-02-21T09:25:40.910Z,2.72
2018-02-21T09:28:10.097Z,2.57
2018-02-21T09:30:39.120Z,2.52
2018-02-21T09:33:07.765Z,2.83
2018-02-21T09:35:37.330Z,3.11
2018-02-21T09:38:06.164Z,3.16
2018-02-21T09:40:35.723Z,3.05
2018-02-21T09:43:04.754Z,2.67
2018-02-21T09:45:34.216Z,2.79
2018-02-21T09:48:10.423Z,3.27
2018-02-21T09:50:39.218Z,3.00
2018-02-21T09:53:07.988Z,3.33
2018-02-21T09:55:36.820Z,3.06
2018-02-21T09:58:05.851Z,3.39
2018-02-21T10:00:39.674Z,3.75
2018-02-21T10:03:08.430Z,3.64
2018-02-21T10:05:37.224Z,4.07
2018-02-21T10:08:05.937Z,3.57
2018-02-21T10:10:34.615Z,4.29
2018-02-21T10:13:04.169Z,4.20
2018-02-21T10:15:33.825Z,3.83
2018-02-21T10:18:02.662Z,3.90
2018-02-21T10:20:31.501Z,4.41
2018-02-21T10:23:00.377Z,4.63
2018-02-21T10:25:29.681Z,4.53
2018-02-21T10:27:58.415Z,4.39
2018-02-21T10:30:27.203Z,4.40
2018-02-21T10:32:56.426Z,4.77
2018-02-21T10:35:25.117Z,4.98
2018-02-21T10:37:54.088Z,5.38
2018-02-21T10:40:23.502Z,5.52
2018-02-21T10:42:52.098Z,5.78
2018-02-21T10:45:20.701Z,5.22
2018-02-21T10:47:49.798Z,5.21
2018-02-21T10:50:18.326Z,5.25
2018-02-21T10:52:46.963Z,4.83
2018-02-21T10:55:15.781Z,6.41
2018-02-21T10:57:44.461Z,7.49
2018-02-21T11:00:14.237Z,6.53
2018-02-21T11:02:42.915Z,6.69
2018-02-21T11:05:12.453Z,6.76
2018-02-21T11:07:41.249Z,6.27
2018-02-21T11:10:10.361Z,5.78
2018-02-21T11:12:39.154Z,5.68
2018-02-21T11:15:07.910Z,5.59
2018-02-21T11:17:36.619Z,4.73
2018-02-21T11:20:05.360Z,4.56
2018-02-21T11:22:33.968Z,4.19
2018-02-21T11:25:02.949Z,4.34
2018-02-21T11:27:31.830Z,4.90
2018-02-21T11:30:00.697Z,4.23
2018-02-21T11:32:29.632Z,4.63
2018-02-21T11:34:58.269Z,3.90
2018-02-21T11:37:27.047Z,4.37
2018-02-21T11:39:55.985Z,4.35
2018-02-21T11:42:25.419Z,4.26
2018-02-21T11:44:54.324Z,4.47
2018-02-21T11:47:23.525Z,4.66
2018-02-21T11:49:52.385Z,5.34
2018-02-21T11:52:20.949Z,5.33
2018-02-21T11:54:49.690Z,5.87
2018-02-21T11:57:18.682Z,5.60
2018-02-21T11:59:47.330Z,7.11
2018-02-21T12:02:18.288Z,7.30
2018-02-21T12:04:49.099Z,6.76
2018-02-21T12:07:17.706Z,7.91
2018-02-21T12:09:47.168Z,8.50
2018-02-21T12:12:16.642Z,9.84
2018-02-21T12:14:45.900Z,8.04
2018-02-21T12:17:14.713Z,5.41
2018-02-21T12:19:45.469Z,4.77
2018-02-21T12:22:14.330Z,4.65
2018-02-21T12:24:45.854Z,4.86
2018-02-21T12:27:15.627Z,4.82
2018-02-21T12:29:46.529Z,4.41
2018-02-21T12:32:15.677Z,4.39
2018-02-21T12:34:44.245Z,4.90
2018-02-21T12:37:13.878Z,4.71
2018-02-21T12:39:47.540Z,4.40
2018-02-21T12:42:17.329Z,4.56
2018-02-21T12:44:46.876Z,5.13
2018-02-21T12:47:16.328Z,5.18
2018-02-21T12:49:46.104Z,5.95
2018-02-21T12:52:15.048Z,6.43
2018-02-21T12:54:43.929Z,6.13
2018-02-21T12:57:13.166Z,6.62
2018-02-21T12:59:42.782Z,6.82
2018-02-21T13:02:17.281Z,7.05
2018-02-21T13:04:47.443Z,6.46
2018-02-21T13:07:16.792Z,6.98
2018-02-21T13:09:46.256Z,7.08
2018-02-21T13:12:17.381Z,6.59
2018-02-21T13:14:46.859Z,5.80
2018-02-21T13:17:16.261Z,6.66
2018-02-21T13:19:45.859Z,6.55
2018-02-21T13:22:15.040Z,5.16
2018-02-21T13:24:44.513Z,5.36
2018-02-21T13:27:13.930Z,6.54
2018-02-21T13:29:43.997Z,7.78
2018-02-21T13:32:15.670Z,7.37
2018-02-21T13:34:44.844Z,7.91
2018-02-21T13:37:13.603Z,9.60
2018-02-21T13:39:42.642Z,11.22
2018-02-21T13:42:11.773Z,10.00
2018-02-21T13:44:41.680Z,9.56
2018-02-21T13:47:10.793Z,9.95
2018-02-21T13:49:40.939Z,7.79
2018-02-21T13:52:09.975Z,6.16
2018-02-21T13:54:38.902Z,5.82
2018-02-21T13:57:07.597Z,6.57
2018-02-21T13:59:37.258Z,8.16
2018-02-21T14:02:28.665Z,6.42
2018-02-21T14:04:58.962Z,6.03
2018-02-21T14:07:27.644Z,6.45
2018-02-21T14:09:56.965Z,6.04
2018-02-21T14:12:26.166Z,5.67
2018-02-21T14:14:55.621Z,5.88
2018-02-21T14:17:25.896Z,6.03
2018-02-21T14:19:54.762Z,5.17
2018-02-21T14:22:24.411Z,5.16
2018-02-21T14:24:58.076Z,5.77
2018-02-21T14:27:32.287Z,5.62
2018-02-21T14:30:04.400Z,5.46
2018-02-21T14:32:36.356Z,5.61
2018-02-21T14:35:06.213Z,5.78
2018-02-21T14:37:38.042Z,5.27
2018-02-21T14:40:10.532Z,5.15
2018-02-21T14:42:40.242Z,4.64
2018-02-21T14:45:11.722Z,4.38
2018-02-21T14:47:42.663Z,4.76
2018-02-21T14:50:12.304Z,4.85
2018-02-21T14:52:43.532Z,4.65
2018-02-21T14:55:14.382Z,4.69
2018-02-21T14:57:44.027Z,4.97
2018-02-21T15:00:14.552Z,4.85
2018-02-21T15:02:47.806Z,4.66
2018-02-21T15:05:17.794Z,4.31
2018-02-21T15:07:47.477Z,4.56
2018-02-21T15:10:20.115Z,4.24
2018-02-21T15:12:51.434Z,4.42
2018-02-21T15:15:24.858Z,4.50
2018-02-21T15:17:56.764Z,4.46
2018-02-21T15:20:30.501Z,4.20
2018-02-21T15:23:04.810Z,4.19
2018-02-21T15:25:35.561Z,4.16
2018-02-21T15:28:07.098Z,4.34
2018-02-21T15:30:41.490Z,4.15
2018-02-21T15:33:15.845Z,4.00
2018-02-21T15:35:51.228Z,4.31
2018-02-21T15:38:25.710Z,4.11
2018-02-21T15:41:02.588Z,4.18
2018-02-21T15:43:42.903Z,4.12
2018-02-21T15:46:15.479Z,3.94
2018-02-21T15:48:50.998Z,3.94
2018-02-21T15:51:27.818Z,3.73
2018-02-21T15:54:05.629Z,3.63
2018-02-21T15:56:43.168Z,3.56
2018-02-21T15:59:18.639Z,3.59
2018-02-21T16:01:53.770Z,3.67
2018-02-21T16:04:27.357Z,3.53
2018-02-21T16:07:01.489Z,3.53
2018-02-21T16:09:39.833Z,3.49
2018-02-21T16:12:16.713Z,3.39
2018-02-21T16:14:52.706Z,3.19
2018-02-21T16:17:31.374Z,3.18
2018-02-21T16:20:08.751Z,3.18
2018-02-21T16:22:45.865Z,3.13
2018-02-21T16:25:21.893Z,3.13
2018-02-21T16:28:04.346Z,2.91
2018-02-21T16:30:43.622Z,2.90
2018-02-21T16:33:20.898Z,2.88
2018-02-21T16:35:58.655Z,2.79
2018-02-21T16:38:32.573Z,2.83
2018-02-21T16:41:08.570Z,2.68
2018-02-21T16:43:44.807Z,2.71
2018-02-21T16:46:22.086Z,2.63
2018-02-21T16:48:58.056Z,2.66
2018-02-21T16:51:37.445Z,2.58
2018-02-21T16:54:17.521Z,2.47
2018-02-21T16:56:55.409Z,2.42
2018-02-21T16:59:31.050Z,2.41
2018-02-21T17:02:08.739Z,2.40
2018-02-21T17:04:48.675Z,2.32
2018-02-21T17:08:25.099Z,2.42
2018-02-21T17:10:58.855Z,2.38
2018-02-21T17:13:33.359Z,2.46
2018-02-21T17:16:06.574Z,2.40
2018-02-21T17:18:40.572Z,2.19
2018-02-21T17:21:14.142Z,2.20
2018-02-21T17:23:47.995Z,2.30
2018-02-21T17:26:24.992Z,2.25
2018-02-21T17:29:02.226Z,2.28
2018-02-21T17:31:35.404Z,2.27
2018-02-21T17:34:11.205Z,2.19
2018-02-21T17:36:46.529Z,2.19
2018-02-21T17:39:22.558Z,2.12
2018-02-21T17:41:59.031Z,2.12
2018-02-21T17:44:33.689Z,2.13
2018-02-21T17:47:07.441Z,2.10
2018-02-21T17:49:43.308Z,2.07
2018-02-21T17:52:18.300Z,1.92
2018-02-21T17:54:55.245Z,1.96
2018-02-21T17:57:33.212Z,2.00
2018-02-21T18:00:13.462Z,1.93
2018-02-21T18:03:01.632Z,2.00
2018-02-21T18:05:47.039Z,1.94
2018-02-21T18:08:25.373Z,1.97
2018-02-21T18:11:01.951Z,1.87
2018-02-21T18:13:38.993Z,1.78
2018-02-21T18:16:26.519Z,1.76
2018-02-21T18:19:04.495Z,1.67
2018-02-21T18:21:47.166Z,1.72
2018-02-21T18:24:27.523Z,1.76
2018-02-21T18:27:04.098Z,1.78
2018-02-21T18:32:35.744Z,1.78
2018-02-21T18:35:18.178Z,1.78
2018-02-21T18:37:56.857Z,1.59
2018-02-21T18:40:34.640Z,1.56
2018-02-21T18:43:12.250Z,1.30
2018-02-21T18:45:56.419Z,1.18
2018-02-21T18:48:34.386Z,1.04
2018-02-21T18:51:13.161Z,1.10
2018-02-21T18:53:49.074Z,0.89
2018-02-21T18:56:31.273Z,0.69
2018-02-21T18:59:08.422Z,0.71
2018-02-21T19:01:47.062Z,0.69
2018-02-21T19:04:28.957Z,0.43
2018-02-21T19:07:09.878Z,0.37
2018-02-21T19:09:50.795Z,0.45
2018-02-21T19:12:26.686Z,0.51
2018-02-21T19:15:07.576Z,0.23
2018-02-21T19:17:50.838Z,0.21
2018-02-21T19:20:29.322Z,0.08
2018-02-21T19:23:08.328Z,0.05
2018-02-21T19:25:45.136Z,-0.13
2018-02-21T19:28:24.031Z,-0.19
2018-02-21T19:31:01.989Z,-0.20
2018-02-21T19:33:40.235Z,-0.26
2018-02-21T19:36:21.337Z,-0.20
2018-02-21T19:39:00.993Z,-0.12
2018-02-21T19:41:38.048Z,-0.21
2018-02-21T19:44:16.938Z,0.06
2018-02-21T19:46:57.904Z,0.03
2018-02-21T19:49:37.763Z,-0.06
2018-02-21T19:52:18.006Z,0.06
2018-02-21T19:54:58.679Z,0.25
2018-02-21T19:57:43.540Z,0.09
2018-02-21T20:00:23.773Z,-0.09
2018-02-21T20:05:59.619Z,-0.04
2018-02-21T20:08:34.539Z,-0.25
2018-02-21T20:11:12.862Z,-0.33
2018-02-21T20:13:53.813Z,0.00
2018-02-21T20:16:32.933Z,-0.29
2018-02-21T20:19:11.956Z,-0.44
2018-02-21T20:21:57.122Z,-0.54
2018-02-21T20:24:43.894Z,-0.21
2018-02-21T20:27:23.125Z,0.04
2018-02-21T20:30:07.536Z,0.00
2018-02-21T20:32:51.952Z,0.36
2018-02-21T20:35:37.266Z,0.52
2018-02-21T20:38:21.000Z,0.51
2018-02-21T20:41:02.881Z,0.60
2018-02-21T20:43:56.464Z,0.61
2018-02-21T20:46:35.040Z,0.61
2018-02-21T20:49:12.924Z,0.56
2018-02-21T20:51:48.163Z,0.78
2018-02-21T20:54:24.144Z,1.06
2018-02-21T20:57:03.618Z,1.08
2018-02-21T20:59:39.575Z,1.18
2018-02-21T21:02:23.109Z,1.27
2018-02-21T21:05:02.886Z,1.29
2018-02-21T21:07:40.100Z,1.30
2018-02-21T21:10:17.789Z,1.18
2018-02-21T21:12:54.671Z,1.18
2018-02-21T21:15:33.701Z,1.40
2018-02-21T21:18:09.740Z,1.35
2018-02-21T21:20:47.293Z,1.40
2018-02-21T21:23:26.285Z,1.37
2018-02-21T21:26:03.038Z,1.41
2018-02-21T21:28:44.377Z,1.40
2018-02-21T21:31:21.346Z,1.42
2018-02-21T21:33:59.260Z,1.36
2018-02-21T21:36:36.745Z,1.34
2018-02-21T21:39:11.323Z,1.38
2018-02-21T21:41:44.413Z,1.21
2018-02-21T21:44:17.740Z,1.42
2018-02-21T21:46:47.546Z,1.23
2018-02-21T21:49:24.106Z,1.14
2018-02-21T21:51:56.086Z,1.35
2018-02-21T21:54:32.793Z,1.43
2018-02-21T21:57:11.385Z,1.43
2018-02-21T21:59:47.500Z,1.27
2018-02-21T22:02:19.152Z,1.32
2018-02-21T22:04:52.151Z,1.34
2018-02-21T22:07:22.995Z,1.41
2018-02-21T22:56:34.589Z,0.80
2018-02-21T22:59:03.169Z,0.45
2018-02-21T23:01:32.930Z,0.43
2018-02-21T23:04:03.660Z,0.48
2018-02-21T23:06:33.300Z,0.49
2018-02-21T23:09:03.000Z,0.31
2018-02-21T23:11:31.749Z,0.26
2018-02-21T23:14:00.315Z,0.28
2018-02-21T23:16:29.884Z,0.38
2018-02-21T23:19:00.106Z,0.30
2018-02-21T23:21:29.971Z,0.16
2018-02-21T23:24:01.902Z,0.07
2018-02-21T23:26:32.794Z,0.26
2018-02-21T23:29:05.412Z,0.00
2018-02-21T23:31:34.813Z,0.08
2018-02-21T23:34:03.828Z,0.03
2018-02-21T23:36:32.500Z,-0.07
2018-02-21T23:39:01.394Z,-0.05
2018-02-21T23:41:30.261Z,-0.15
2018-02-21T23:43:59.605Z,-0.20
2018-02-21T23:46:29.534Z,-0.22
2018-02-21T23:48:58.965Z,-0.32
2018-02-21T23:51:28.564Z,-0.33
2018-02-21T23:53:57.704Z,-0.26
2018-02-21T23:56:26.686Z,-0.25
2018-02-21T23:58:55.530Z,-0.10
